createdAt,value
2022-11-25T00:00:32.101Z,7.95
2022-11-25T00:03:00.520Z,8.30
2022-11-25T00:05:29.486Z,9.35
2022-11-25T00:07:57.764Z,8.15
2022-11-25T00:10:26.077Z,10.15
2022-11-25T00:12:57.012Z,9.10
2022-11-25T00:15:33.859Z,9.70
2022-11-25T00:18:02.179Z,11.63
2022-11-25T00:20:33.116Z,11.60
2022-11-25T00:23:01.383Z,10.80
2022-11-25T00:25:29.631Z,11.98
2022-11-25T00:27:57.881Z,11.75
2022-11-25T00:30:29.187Z,10.43
2022-11-25T00:32:57.477Z,10.40
2022-11-25T00:35:25.786Z,11.27
2022-11-25T00:37:54.135Z,12.63
2022-11-25T00:40:22.486Z,11.05
2022-11-25T00:43:08.968Z,13.07
2022-11-25T00:45:37.438Z,16.13
2022-11-25T00:48:08.418Z,12.05
2022-11-25T00:50:36.837Z,11.38
2022-11-25T00:53:05.174Z,14.20
2022-11-25T00:55:53.261Z,14.85
2022-11-25T00:58:24.040Z,13.68
2022-11-25T01:00:52.328Z,11.65
2022-11-25T01:03:20.696Z,11.13
2022-11-25T01:05:48.950Z,13.27
2022-11-25T01:08:17.221Z,10.80
2022-11-25T01:10:45.540Z,13.43
2022-11-25T01:13:17.549Z,12.05
2022-11-25T01:15:45.828Z,13.63
2022-11-25T01:18:16.646Z,12.60
2022-11-25T01:20:44.901Z,10.05
2022-11-25T01:23:13.210Z,10.48
2022-11-25T01:25:42.500Z,17.42
2022-11-25T01:28:10.815Z,15.20
2022-11-25T01:30:41.266Z,14.32
2022-11-25T01:33:09.706Z,13.05
2022-11-25T01:35:39.619Z,11.00
2022-11-25T01:38:10.141Z,12.35
2022-11-25T01:40:43.104Z,12.23
2022-11-25T01:43:17.635Z,12.27
2022-11-25T01:48:40.100Z,12.50
2022-11-25T01:51:19.960Z,17.73
2022-11-25T01:53:48.746Z,15.55
2022-11-25T01:56:17.550Z,15.20
2022-11-25T01:58:49.441Z,19.20
2022-11-25T02:01:19.099Z,13.60
2022-11-25T02:03:57.698Z,12.65
2022-11-25T02:06:33.536Z,13.73
2022-11-25T02:09:07.301Z,12.75
2022-11-25T02:11:41.369Z,17.27
2022-11-25T02:14:10.720Z,14.63
2022-11-25T02:16:39.193Z,13.68
2022-11-25T02:19:21.470Z,16.42
2022-11-25T02:21:57.699Z,14.70
2022-11-25T02:24:42.216Z,14.05
2022-11-25T02:27:10.575Z,14.73
2022-11-25T02:29:40.505Z,14.02
2022-11-25T02:32:08.897Z,13.65
2022-11-25T02:34:39.420Z,14.07
2022-11-25T02:37:07.741Z,13.55
2022-11-25T02:39:41.316Z,13.43
2022-11-25T02:42:12.106Z,10.77
2022-11-25T02:44:40.605Z,13.40
2022-11-25T02:47:13.670Z,11.57
2022-11-25T02:49:41.964Z,11.88
2022-11-25T02:52:10.235Z,13.38
2022-11-25T02:54:41.861Z,11.80
2022-11-25T02:57:10.183Z,11.48
2022-11-25T02:59:38.470Z,13.10
2022-11-25T03:02:07.018Z,12.07
2022-11-25T03:04:38.676Z,12.90
2022-11-25T03:07:07.148Z,12.07
2022-11-25T03:09:37.866Z,12.25
2022-11-25T03:12:23.074Z,15.70
2022-11-25T03:14:51.455Z,10.93
2022-11-25T03:17:19.710Z,10.23
2022-11-25T03:19:53.495Z,12.57
2022-11-25T03:22:21.857Z,12.98
2022-11-25T03:24:50.241Z,12.13
2022-11-25T03:27:35.298Z,12.40
2022-11-25T03:30:06.986Z,9.98
2022-11-25T03:32:37.623Z,12.73
2022-11-25T03:35:07.112Z,12.95
2022-11-25T03:37:35.460Z,15.63
2022-11-25T03:40:04.481Z,12.68
2022-11-25T03:42:35.461Z,14.27
2022-11-25T03:45:03.908Z,13.55
2022-11-25T03:47:32.245Z,15.43
2022-11-25T03:50:03.304Z,11.77
2022-11-25T03:52:31.726Z,15.80
2022-11-25T03:55:00.030Z,12.27
2022-11-25T03:57:31.301Z,13.52
2022-11-25T04:00:10.448Z,12.48
2022-11-25T04:02:40.912Z,11.85
2022-11-25T04:05:11.540Z,11.45
2022-11-25T04:07:39.844Z,10.70
2022-11-25T04:10:09.141Z,13.00
2022-11-25T04:12:49.385Z,11.10
2022-11-25T04:15:21.745Z,10.77
2022-11-25T04:17:50.071Z,10.48
2022-11-25T04:20:23.783Z,10.90
2022-11-25T04:22:54.043Z,12.43
2022-11-25T04:25:25.379Z,10.98
2022-11-25T04:27:53.591Z,10.65
2022-11-25T04:30:22.020Z,11.15
2022-11-25T04:32:55.541Z,9.73
2022-11-25T04:35:23.908Z,11.63
2022-11-25T04:37:55.141Z,10.73
2022-11-25T04:40:27.127Z,12.50
2022-11-25T04:43:04.668Z,13.15
2022-11-25T04:45:59.032Z,15.95
2022-11-25T04:48:28.575Z,11.00
2022-11-25T04:50:57.546Z,11.48
2022-11-25T04:53:34.636Z,12.05
2022-11-25T04:56:02.946Z,10.98
2022-11-25T04:58:49.512Z,9.30
2022-11-25T05:01:17.908Z,11.98
2022-11-25T05:03:57.150Z,11.18
2022-11-25T05:06:28.206Z,12.32
2022-11-25T05:09:08.616Z,10.98
2022-11-25T05:11:39.903Z,12.30
2022-11-25T05:14:13.057Z,10.32
2022-11-25T05:16:49.907Z,9.73
2022-11-25T05:19:18.539Z,12.00
2022-11-25T05:21:49.392Z,12.38
2022-11-25T05:24:17.855Z,10.88
2022-11-25T05:26:49.155Z,10.85
2022-11-25T05:29:21.797Z,11.07
2022-11-25T05:31:50.178Z,11.10
2022-11-25T05:34:18.471Z,12.52
2022-11-25T05:36:53.050Z,12.02
2022-11-25T05:39:28.755Z,12.00
2022-11-25T05:41:59.327Z,11.27
2022-11-25T05:44:30.306Z,12.20
2022-11-25T05:47:11.387Z,13.43
2022-11-25T05:49:39.650Z,15.35
2022-11-25T05:52:10.947Z,14.32
2022-11-25T05:54:43.776Z,11.30
2022-11-25T05:57:12.256Z,11.05
2022-11-25T05:59:46.191Z,11.73
2022-11-25T06:02:16.257Z,11.02
2022-11-25T06:04:47.917Z,12.88
2022-11-25T06:07:22.053Z,13.82
2022-11-25T06:09:51.693Z,11.70
2022-11-25T06:12:25.031Z,11.50
2022-11-25T06:14:57.178Z,11.50
2022-11-25T06:17:37.060Z,11.25
2022-11-25T06:20:13.156Z,10.48
2022-11-25T06:22:43.941Z,10.18
2022-11-25T06:25:15.976Z,11.13
2022-11-25T06:28:11.244Z,10.07
2022-11-25T06:30:44.807Z,9.25
2022-11-25T06:33:18.507Z,12.18
2022-11-25T06:35:51.675Z,9.93
2022-11-25T06:38:23.031Z,10.48
2022-11-25T06:40:56.394Z,10.15
2022-11-25T06:43:31.026Z,11.65
2022-11-25T06:46:21.136Z,11.45
2022-11-25T06:48:56.262Z,10.43
2022-11-25T06:51:29.880Z,12.02
2022-11-25T06:54:01.456Z,11.23
2022-11-25T06:56:32.695Z,10.30
2022-11-25T06:59:12.585Z,10.00
2022-11-25T07:01:48.434Z,12.40
2022-11-25T07:04:36.581Z,11.20
2022-11-25T07:07:11.662Z,10.52
2022-11-25T07:09:50.491Z,10.05
2022-11-25T07:12:23.205Z,10.15
2022-11-25T07:14:57.701Z,10.90
2022-11-25T07:17:33.936Z,8.90
2022-11-25T07:20:08.172Z,9.73
2022-11-25T07:22:37.902Z,10.15
2022-11-25T07:25:10.346Z,8.40
2022-11-25T07:27:38.609Z,8.75
2022-11-25T07:31:09.417Z,11.65
2022-11-25T07:32:56.939Z,9.05
2022-11-25T07:35:27.776Z,10.68
2022-11-25T07:38:01.072Z,9.45
2022-11-25T07:40:32.367Z,7.13
2022-11-25T07:43:05.582Z,8.55
2022-11-25T07:45:37.681Z,10.77
2022-11-25T07:48:09.777Z,8.75
2022-11-25T07:50:42.647Z,9.13
2022-11-25T07:53:17.014Z,8.02
2022-11-25T07:55:45.674Z,10.73
2022-11-25T07:58:17.676Z,7.97
2022-11-25T08:00:47.678Z,9.50
2022-11-25T08:03:23.202Z,8.68
2022-11-25T08:05:51.583Z,9.27
2022-11-25T08:08:20.019Z,7.63
2022-11-25T08:10:56.486Z,7.57
2022-11-25T08:13:30.828Z,7.53
2022-11-25T08:16:21.916Z,7.25
2022-11-25T08:18:59.128Z,6.85
2022-11-25T08:21:32.471Z,10.98
2022-11-25T08:24:06.321Z,8.50
2022-11-25T08:26:40.631Z,8.30
2022-11-25T08:29:10.786Z,8.30
2022-11-25T08:31:45.651Z,8.38
2022-11-25T08:34:27.616Z,7.40
2022-11-25T08:37:10.592Z,7.10
2022-11-25T08:39:52.273Z,7.03
2022-11-25T08:42:25.622Z,7.47
2022-11-25T08:44:57.983Z,8.82
2022-11-25T08:47:29.861Z,10.30
2022-11-25T08:49:58.181Z,7.57
2022-11-25T08:52:30.061Z,9.10
2022-11-25T08:55:04.426Z,7.63
2022-11-25T08:57:35.456Z,9.95
2022-11-25T09:00:08.737Z,8.15
2022-11-25T09:02:45.711Z,9.50
2022-11-25T09:05:20.849Z,9.32
2022-11-25T09:07:52.264Z,9.45
2022-11-25T09:10:28.553Z,8.73
2022-11-25T09:13:04.956Z,7.50
2022-11-25T09:15:45.466Z,9.35
2022-11-25T09:18:23.109Z,9.52
2022-11-25T09:20:57.699Z,9.43
2022-11-25T09:23:46.344Z,8.35
2022-11-25T09:26:27.296Z,8.40
2022-11-25T09:28:58.802Z,9.77
2022-11-25T09:31:33.216Z,8.32
2022-11-25T09:34:04.899Z,7.65
2022-11-25T09:36:36.040Z,6.78
2022-11-25T09:39:16.277Z,8.70
2022-11-25T09:42:12.069Z,6.90
2022-11-25T09:45:39.137Z,8.02
2022-11-25T09:48:22.106Z,8.40
2022-11-25T09:51:19.573Z,6.38
2022-11-25T09:54:13.207Z,7.80
2022-11-25T09:57:37.047Z,8.05
2022-11-25T10:00:30.705Z,10.15
2022-11-25T10:03:09.585Z,8.52
2022-11-25T10:05:52.861Z,8.05
2022-11-25T10:08:33.699Z,9.82
2022-11-25T10:11:25.966Z,8.38
2022-11-25T10:14:22.732Z,8.25
2022-11-25T10:17:06.807Z,9.82
2022-11-25T10:19:44.812Z,8.05
2022-11-25T10:22:25.541Z,8.88
2022-11-25T10:25:02.562Z,9.32
2022-11-25T10:27:45.804Z,9.10
2022-11-25T10:30:48.464Z,9.35
2022-11-25T10:33:54.006Z,8.27
2022-11-25T10:36:52.341Z,10.70
2022-11-25T10:39:34.760Z,7.60
2022-11-25T10:42:19.920Z,11.63
2022-11-25T10:47:54.098Z,8.13
2022-11-25T10:50:52.928Z,9.43
2022-11-25T10:53:31.652Z,8.45
2022-11-25T10:56:18.179Z,9.80
2022-11-25T10:58:50.303Z,8.68
2022-11-25T11:01:18.684Z,8.18
2022-11-25T11:04:07.898Z,7.68
2022-11-25T11:06:52.987Z,7.60
2022-11-25T11:09:34.980Z,11.77
2022-11-25T11:12:33.704Z,8.02
2022-11-25T11:15:27.781Z,8.90
2022-11-25T11:17:58.688Z,10.50
2022-11-25T11:20:31.303Z,9.57
2022-11-25T11:23:25.067Z,10.15
2022-11-25T11:26:10.113Z,8.40
2022-11-25T11:29:02.498Z,8.32
2022-11-25T11:31:55.492Z,9.65
2022-11-25T11:34:39.907Z,8.32
2022-11-25T11:37:30.048Z,7.90
2022-11-25T11:40:47.606Z,8.38
2022-11-25T11:43:47.495Z,7.50
2022-11-25T11:46:46.966Z,8.60
2022-11-25T11:49:30.560Z,9.13
2022-11-25T11:52:23.728Z,9.10
2022-11-25T11:55:04.347Z,8.02
2022-11-25T11:57:46.286Z,7.03
2022-11-25T12:00:39.082Z,7.38
2022-11-25T12:03:31.548Z,9.02
2022-11-25T12:06:10.232Z,9.05
2022-11-25T12:08:56.727Z,8.73
2022-11-25T12:11:36.724Z,9.20
2022-11-25T12:14:32.477Z,9.07
2022-11-25T12:17:33.426Z,6.18
2022-11-25T12:20:15.737Z,7.22
2022-11-25T12:23:20.798Z,6.85
2022-11-25T12:26:08.329Z,7.47
2022-11-25T12:28:52.272Z,7.07
2022-11-25T12:31:32.805Z,10.25
2022-11-25T12:34:07.620Z,7.18
2022-11-25T12:39:43.240Z,7.35
2022-11-25T12:42:25.016Z,9.13
2022-11-25T12:45:24.977Z,7.85
2022-11-25T12:47:59.146Z,7.40
2022-11-25T12:51:00.296Z,6.38
2022-11-25T12:53:47.591Z,6.22
2022-11-25T12:56:33.688Z,9.65
2022-11-25T12:59:47.034Z,9.10
2022-11-25T13:02:56.501Z,6.60
2022-11-25T13:06:04.467Z,8.60
2022-11-25T13:08:59.506Z,8.40
2022-11-25T13:11:47.445Z,8.13
2022-11-25T13:14:48.572Z,6.68
2022-11-25T13:17:32.327Z,6.60
2022-11-25T13:20:33.002Z,7.18
2022-11-25T13:23:14.870Z,7.38
2022-11-25T13:25:50.661Z,8.32
2022-11-25T13:28:39.214Z,6.85
2022-11-25T13:31:29.004Z,8.88
2022-11-25T13:34:38.139Z,8.35
2022-11-25T13:37:46.321Z,6.90
2022-11-25T13:40:34.751Z,6.68
2022-11-25T13:43:11.950Z,7.15
2022-11-25T13:45:55.180Z,7.68
2022-11-25T13:48:30.316Z,6.03
2022-11-25T13:51:49.268Z,7.65
2022-11-25T13:54:26.751Z,8.18
2022-11-25T13:57:41.067Z,8.15
2022-11-25T14:00:40.937Z,6.65
2022-11-25T14:03:27.639Z,6.90
2022-11-25T14:06:54.502Z,7.72
2022-11-25T14:10:10.905Z,8.68
2022-11-25T14:12:55.688Z,7.45
2022-11-25T14:15:48.120Z,7.78
2022-11-25T14:19:17.343Z,7.53
2022-11-25T14:22:22.469Z,6.93
2022-11-25T14:25:10.976Z,8.07
2022-11-25T14:27:51.101Z,6.82
2022-11-25T14:30:29.381Z,7.60
2022-11-25T14:33:10.826Z,7.47
2022-11-25T14:35:45.887Z,6.18
2022-11-25T14:38:57.540Z,5.43
2022-11-25T14:42:04.806Z,5.55
2022-11-25T14:45:01.480Z,6.78
2022-11-25T14:47:43.863Z,6.28
2022-11-25T14:53:22.407Z,7.28
2022-11-25T14:56:08.242Z,6.68
2022-11-25T14:58:43.667Z,6.93
2022-11-25T15:01:40.246Z,5.88
2022-11-25T15:04:21.167Z,6.05
2022-11-25T15:07:02.147Z,6.88
2022-11-25T15:09:49.677Z,6.63
2022-11-25T15:12:31.054Z,5.35
2022-11-25T15:15:07.180Z,6.13
2022-11-25T15:18:02.212Z,8.57
2022-11-25T15:20:42.127Z,6.47
2022-11-25T15:23:28.905Z,6.55
2022-11-25T15:26:02.786Z,5.30
2022-11-25T15:28:39.311Z,6.33
2022-11-25T15:31:28.931Z,5.82
2022-11-25T15:34:25.806Z,5.82
2022-11-25T15:37:07.336Z,8.02
2022-11-25T15:39:39.836Z,6.60
2022-11-25T15:42:29.424Z,7.07
2022-11-25T15:45:05.267Z,7.25
2022-11-25T15:47:45.543Z,4.88
2022-11-25T15:50:35.280Z,5.65
2022-11-25T15:53:10.011Z,6.32
2022-11-25T15:58:24.107Z,6.50
2022-11-25T16:01:28.193Z,5.88
2022-11-25T16:04:25.534Z,6.82
2022-11-25T16:06:57.058Z,5.55
2022-11-25T16:09:35.208Z,7.18
2022-11-25T16:12:29.342Z,7.15
2022-11-25T16:15:18.720Z,6.25
2022-11-25T16:17:54.816Z,6.38
2022-11-25T16:20:35.529Z,8.05
2022-11-25T16:23:36.991Z,6.47
2022-11-25T16:26:28.065Z,5.75
2022-11-25T16:29:07.301Z,7.57
2022-11-25T16:31:40.541Z,7.25
2022-11-25T16:34:22.577Z,5.70
2022-11-25T16:36:59.539Z,6.68
2022-11-25T16:39:30.271Z,7.22
2022-11-25T16:42:05.339Z,6.15
2022-11-25T16:44:37.793Z,6.90
2022-11-25T16:47:25.829Z,6.95
2022-11-25T16:50:00.554Z,7.28
2022-11-25T16:55:14.895Z,6.43
2022-11-25T16:57:58.801Z,6.00
2022-11-25T17:00:35.861Z,8.02
2022-11-25T17:03:23.116Z,9.13
2022-11-25T17:06:00.119Z,8.20
2022-11-25T17:08:36.081Z,7.07
2022-11-25T17:11:06.462Z,6.05
2022-11-25T17:13:40.812Z,6.72
2022-11-25T17:16:20.195Z,6.43
2022-11-25T17:18:55.016Z,5.72
2022-11-25T17:24:05.547Z,4.60
2022-11-25T17:26:46.673Z,6.93
2022-11-25T17:29:23.675Z,7.57
2022-11-25T17:31:58.578Z,5.45
2022-11-25T17:34:39.711Z,4.43
2022-11-25T17:37:21.721Z,6.95
2022-11-25T17:39:56.414Z,5.35
2022-11-25T17:44:58.061Z,5.78
2022-11-25T17:47:26.497Z,5.47
2022-11-25T17:49:58.137Z,4.93
2022-11-25T17:52:34.029Z,4.45
2022-11-25T17:55:04.260Z,5.72
2022-11-25T17:57:38.663Z,4.93
2022-11-25T18:00:32.078Z,5.18
2022-11-25T18:03:00.557Z,4.15
2022-11-25T18:05:29.752Z,5.18
2022-11-25T18:08:00.738Z,7.43
2022-11-25T18:10:29.290Z,5.20
2022-11-25T18:13:00.451Z,4.28
2022-11-25T18:15:34.986Z,3.97
2022-11-25T18:18:15.143Z,6.07
2022-11-25T18:20:45.725Z,4.53
2022-11-25T18:23:17.738Z,5.25
2022-11-25T18:25:50.207Z,4.35
2022-11-25T18:28:26.281Z,5.60
2022-11-25T18:31:00.530Z,4.30
2022-11-25T18:33:37.325Z,4.57
2022-11-25T18:36:06.194Z,7.32
2022-11-25T18:38:37.567Z,3.90
2022-11-25T18:41:06.127Z,4.70
2022-11-25T18:43:38.501Z,4.85
2022-11-25T18:46:10.379Z,4.80
2022-11-25T18:48:46.511Z,3.88
2022-11-25T18:51:18.463Z,3.78
2022-11-25T18:53:46.948Z,5.68
2022-11-25T18:56:23.627Z,5.60
2022-11-25T18:58:54.836Z,5.18
2022-11-25T19:01:31.388Z,7.50
2022-11-25T19:04:02.497Z,6.82
2022-11-25T19:06:36.752Z,5.57
2022-11-25T19:09:08.101Z,6.03
2022-11-25T19:11:42.952Z,5.15
2022-11-25T19:14:47.141Z,5.38
2022-11-25T19:17:27.362Z,6.53
2022-11-25T19:19:57.893Z,5.47
2022-11-25T19:22:26.326Z,7.53
2022-11-25T19:24:57.203Z,5.28
2022-11-25T19:27:30.816Z,6.03
2022-11-25T19:29:59.466Z,5.77
2022-11-25T19:32:32.586Z,4.82
2022-11-25T19:35:19.859Z,4.75
2022-11-25T19:37:48.260Z,3.95
2022-11-25T19:40:22.508Z,4.10
2022-11-25T19:42:53.537Z,4.80
2022-11-25T19:45:30.524Z,4.60
2022-11-25T19:48:09.436Z,3.63
2022-11-25T19:50:41.347Z,4.60
2022-11-25T19:53:30.177Z,4.68
2022-11-25T19:56:08.226Z,6.70
2022-11-25T19:58:36.560Z,6.70
2022-11-25T20:01:07.163Z,7.15
2022-11-25T20:03:38.663Z,6.63
2022-11-25T20:06:07.641Z,9.40
2022-11-25T20:08:35.942Z,9.55
2022-11-25T20:11:06.981Z,7.95
2022-11-25T20:13:35.577Z,8.73
2022-11-25T20:16:04.606Z,8.80
2022-11-25T20:18:33.102Z,8.18
2022-11-25T20:21:10.912Z,9.10
2022-11-25T20:23:44.473Z,9.30
2022-11-25T20:26:29.529Z,7.20
2022-11-25T20:28:58.019Z,9.57
2022-11-25T20:31:31.380Z,9.13
2022-11-25T20:34:00.462Z,10.45
2022-11-25T20:36:35.127Z,10.82
2022-11-25T20:39:04.091Z,10.25
2022-11-25T20:41:36.070Z,10.70
2022-11-25T20:44:04.451Z,12.15
2022-11-25T20:46:33.175Z,8.75
2022-11-25T20:49:04.305Z,10.18
2022-11-25T20:51:35.535Z,10.00
2022-11-25T20:54:03.915Z,9.65
2022-11-25T20:56:34.452Z,11.13
2022-11-25T20:59:02.762Z,9.50
2022-11-25T21:01:31.063Z,11.02
2022-11-25T21:04:02.266Z,10.55
2022-11-25T21:06:35.360Z,8.50
2022-11-25T21:09:07.595Z,10.10
2022-11-25T21:11:35.851Z,10.40
2022-11-25T21:14:04.106Z,9.82
2022-11-25T21:16:32.475Z,9.93
2022-11-25T21:19:00.831Z,11.32
2022-11-25T21:21:35.985Z,9.52
2022-11-25T21:24:28.364Z,8.38
2022-11-25T21:26:58.832Z,10.48
2022-11-25T21:29:28.631Z,9.80
2022-11-25T21:32:02.244Z,10.88
2022-11-25T21:34:30.575Z,9.70
2022-11-25T21:37:02.760Z,11.25
2022-11-25T21:39:39.730Z,11.73
2022-11-25T21:42:16.271Z,8.57
2022-11-25T21:44:45.961Z,6.93
2022-11-25T21:47:20.895Z,7.15
2022-11-25T21:49:52.903Z,9.05
2022-11-25T21:52:22.367Z,10.45
2022-11-25T21:54:52.675Z,11.75
2022-11-25T21:57:29.539Z,9.90
2022-11-25T21:59:58.011Z,9.63
2022-11-25T22:02:26.810Z,12.23
2022-11-25T22:05:02.940Z,12.85
2022-11-25T22:07:31.319Z,10.65
2022-11-25T22:09:59.726Z,12.77
2022-11-25T22:12:32.030Z,15.00
2022-11-25T22:15:03.494Z,12.80
2022-11-25T22:17:32.024Z,13.70
2022-11-25T22:20:00.481Z,11.55
2022-11-25T22:22:32.096Z,10.50
2022-11-25T22:25:00.388Z,11.80
2022-11-25T22:27:36.901Z,11.40
2022-11-25T22:30:07.049Z,12.85
2022-11-25T22:32:38.296Z,14.30
2022-11-25T22:35:26.664Z,12.27
2022-11-25T22:38:00.246Z,12.32
2022-11-25T22:40:28.710Z,10.97
2022-11-25T22:42:57.612Z,11.10
2022-11-25T22:45:36.113Z,9.20
2022-11-25T22:48:07.588Z,11.00
2022-11-25T22:50:39.302Z,9.63
2022-11-25T22:53:15.598Z,10.70
2022-11-25T22:55:44.453Z,8.55
2022-11-25T22:58:15.177Z,10.70
2022-11-25T23:00:46.387Z,10.00
2022-11-25T23:03:19.065Z,8.07
2022-11-25T23:05:57.962Z,8.85
2022-11-25T23:08:29.709Z,8.25
2022-11-25T23:10:58.251Z,10.48
2022-11-25T23:13:31.105Z,9.27
2022-11-25T23:16:01.966Z,7.45
2022-11-25T23:18:42.563Z,10.45
2022-11-25T23:21:28.733Z,7.10
2022-11-25T23:23:59.953Z,9.45
2022-11-25T23:26:34.760Z,8.07
2022-11-25T23:29:03.455Z,7.80
2022-11-25T23:31:32.001Z,8.90
2022-11-25T23:34:00.396Z,7.07
2022-11-25T23:36:32.261Z,7.90
2022-11-25T23:39:04.906Z,7.65
2022-11-25T23:41:35.312Z,7.82
2022-11-25T23:44:17.027Z,9.63
2022-11-25T23:46:48.003Z,9.32
2022-11-25T23:49:29.586Z,12.02
2022-11-25T23:52:07.551Z,10.52
2022-11-25T23:54:43.471Z,14.15
2022-11-25T23:57:20.891Z,13.23
2022-11-25T23:59:52.912Z,17.75
